Terminal Aerodrome Forecast
Issued by NWS Tampa Bay Area, FL

Home | Current Version | Previous Version | Text Only | Print | Product List | Glossary On
Versions: 1 2 3 4 5 6 7 8 9 10 11 12 13 14
000
FTUS42 KTBW 290536
TAFFMY
TAF
KFMY 290536Z 2906/3006 06005KT P6SM FEW250
     FM291400 09009KT P6SM SCT030 SCT250
     FM291700 08009KT P6SM SCT045 SCT250
     FM292000 08009KT P6SM VCTS SCT030CB BKN050
     FM300100 07007KT P6SM SCT050 SCT250=

USA.gov is the U.S. government's official web portal to all federal, state and local government web resources and services.